Time;durP1;ratioP1;P1;durP2;ratioP2;P2;SDS_P1;SDS_P2;PMS_P1;PMS_P2;Temp;Humidity;BMP_temperature;BMP_pressure;BME280_temperature;BME280_humidity;BME280_pressure;Samples;Min_cycle;Max_cycle;Signal;HPM_P1;HPM_P2
2022/10/25 00:01:46;;;;;;;;;0.00;0.00;;;;;;;;4753901;29;28930;-94
2022/10/25 00:04:12;;;;;;;;;0.00;0.00;;;;;;;;4754095;29;28494;-94
2022/10/25 00:06:37;;;;;;;;;0.00;0.00;;;;;;;;4752702;29;28556;-95
2022/10/25 00:09:03;;;;;;;;;0.00;0.00;;;;;;;;4769522;29;28609;-93
2022/10/25 00:11:29;;;;;;;;;0.00;0.00;;;;;;;;4753261;29;28522;-93
2022/10/25 00:13:55;;;;;;;;;0.00;0.00;;;;;;;;4769299;29;28587;-93
2022/10/25 00:16:22;;;;;;;;;0.00;0.00;;;;;;;;4753345;29;28412;-93
2022/10/25 00:18:47;;;;;;;;;0.00;0.00;;;;;;;;4753369;29;30854;-93
2022/10/25 00:21:13;;;;;;;;;0.00;0.00;;;;;;;;4751156;29;29607;-92
2022/10/25 00:23:38;;;;;;;;;0.00;0.00;;;;;;;;4753559;29;28363;-92
2022/10/25 00:26:04;;;;;;;;;0.00;0.00;;;;;;;;4768922;29;28454;-93
2022/10/25 00:28:30;;;;;;;;;0.00;0.00;;;;;;;;4769406;29;28386;-93
2022/10/25 00:31:05;;;;;;;;;0.00;0.00;;;;;;;;4742292;30;28843;-93
2022/10/25 00:33:31;;;;;;;;;0.00;0.00;;;;;;;;4735009;30;28401;-93
2022/10/25 00:36:07;;;;;;;;;0.00;0.00;;;;;;;;4746668;29;28363;-93
2022/10/25 00:38:32;;;;;;;;;0.00;0.00;;;;;;;;4753066;29;30213;-93
2022/10/25 00:40:58;;;;;;;;;0.00;0.00;;;;;;;;4752811;29;28458;-94
2022/10/25 00:43:53;;;;;;;;;0.00;0.00;;;;;;;;4752570;29;28486;-94
2022/10/25 00:46:18;;;;;;;;;0.00;0.00;;;;;;;;4734294;29;28494;-95
2022/10/25 00:49:02;;;;;;;;;0.00;0.00;;;;;;;;4752980;29;30545;-93
2022/10/25 00:51:30;;;;;;;;;0.00;0.00;;;;;;;;4735221;30;28708;-93
2022/10/25 00:53:55;;;;;;;;;0.00;0.00;;;;;;;;4735130;30;28491;-92
2022/10/25 00:56:24;;;;;;;;;0.00;0.00;;;;;;;;4734568;30;28572;-93
2022/10/25 00:58:52;;;;;;;;;0.00;0.00;;;;;;;;4734647;30;30302;-93
2022/10/25 01:01:17;;;;;;;;;0.00;0.00;;;;;;;;4735002;30;30012;-93
2022/10/25 01:03:44;;;;;;;;;0.00;0.00;;;;;;;;4735405;30;28437;-92
2022/10/25 01:06:12;;;;;;;;;0.00;0.00;;;;;;;;4734731;30;28455;-93
2022/10/25 01:08:39;;;;;;;;;0.00;0.00;;;;;;;;4735013;30;30107;-93
2022/10/25 01:11:04;;;;;;;;;0.00;0.00;;;;;;;;4734573;30;28872;-92
2022/10/25 01:13:30;;;;;;;;;0.00;0.00;;;;;;;;4734846;30;27853;-93
2022/10/25 01:16:10;;;;;;;;;0.00;0.00;;;;;;;;4734752;30;28612;-94
2022/10/25 01:18:42;;;;;;;;;0.00;0.00;;;;;;;;4746026;29;30098;-93
2022/10/25 01:21:26;;;;;;;;;0.00;0.00;;;;;;;;4752153;29;29579;-92
2022/10/25 01:24:10;;;;;;;;;0.00;0.00;;;;;;;;4752767;29;28341;-94
2022/10/25 01:26:54;;;;;;;;;0.00;0.00;;;;;;;;4751945;29;28561;-94
2022/10/25 01:29:38;;;;;;;;;0.00;0.00;;;;;;;;4751672;29;29906;-94
2022/10/25 01:32:23;;;;;;;;;0.00;0.00;;;;;;;;4749678;30;29588;-93
2022/10/25 01:34:51;;;;;;;;;0.00;0.00;;;;;;;;4748819;30;28497;-93
2022/10/25 01:37:21;;;;;;;;;0.00;0.00;;;;;;;;4734662;30;28324;-93
2022/10/25 01:40:08;;;;;;;;;0.00;0.00;;;;;;;;4734411;30;29904;-94
2022/10/25 01:42:51;;;;;;;;;0.00;0.00;;;;;;;;4734539;30;28814;-94
2022/10/25 01:45:26;;;;;;;;;0.00;0.00;;;;;;;;4750406;29;28429;-93
2022/10/25 01:48:11;;;;;;;;;0.00;0.00;;;;;;;;4752067;29;28666;-93
2022/10/25 01:50:41;;;;;;;;;0.00;0.00;;;;;;;;4736015;29;30165;-93
2022/10/25 01:53:07;;;;;;;;;0.00;0.00;;;;;;;;4768300;29;28340;-93
2022/10/25 01:55:36;;;;;;;;;0.00;0.00;;;;;;;;4751439;29;28285;-94
2022/10/25 01:58:17;;;;;;;;;0.00;0.00;;;;;;;;4751199;29;28580;-92
2022/10/25 02:00:53;;;;;;;;;0.00;0.00;;;;;;;;4751432;29;30120;-94
2022/10/25 02:03:28;;;;;;;;;0.00;0.00;;;;;;;;4751968;29;28795;-93
2022/10/25 02:06:12;;;;;;;;;0.00;0.00;;;;;;;;4751498;29;28838;-93
2022/10/25 02:08:42;;;;;;;;;0.00;0.00;;;;;;;;4751572;29;28434;-92
2022/10/25 02:11:14;;;;;;;;;0.00;0.00;;;;;;;;4751805;29;30290;-93
2022/10/25 02:13:58;;;;;;;;;0.00;0.00;;;;;;;;4743903;30;28825;-93
2022/10/25 02:16:28;;;;;;;;;0.00;0.00;;;;;;;;4763561;29;28486;-93
2022/10/25 02:18:56;;;;;;;;;0.00;0.00;;;;;;;;4743224;29;28531;-93
2022/10/25 02:21:23;;;;;;;;;0.00;0.00;;;;;;;;4751645;29;29991;-93
2022/10/25 02:23:49;;;;;;;;;0.00;0.00;;;;;;;;4751699;29;28825;-93
2022/10/25 02:26:15;;;;;;;;;0.00;0.00;;;;;;;;4751717;29;28636;-93
2022/10/25 02:28:41;;;;;;;;;0.00;0.00;;;;;;;;4751489;29;28617;-93
2022/10/25 02:31:09;;;;;;;;;0.00;0.00;;;;;;;;4739247;30;31284;-93
2022/10/25 02:33:34;;;;;;;;;0.00;0.00;;;;;;;;4734174;30;29554;-94
2022/10/25 02:36:09;;;;;;;;;0.00;0.00;;;;;;;;4732974;30;28439;-92
2022/10/25 02:38:34;;;;;;;;;0.00;0.00;;;;;;;;4733423;30;28811;-93
2022/10/25 02:41:01;;;;;;;;;0.00;0.00;;;;;;;;4733682;30;30190;-93
2022/10/25 02:43:26;;;;;;;;;0.00;0.00;;;;;;;;4733659;30;28733;-93
2022/10/25 02:45:52;;;;;;;;;0.00;0.00;;;;;;;;4733105;30;43089;-93
2022/10/25 02:48:17;;;;;;;;;0.00;0.00;;;;;;;;4748178;29;28532;-94
2022/10/25 02:50:42;;;;;;;;;0.00;0.00;;;;;;;;4751137;29;30965;-92
2022/10/25 02:53:08;;;;;;;;;0.00;0.00;;;;;;;;4751156;29;28558;-93
2022/10/25 02:55:33;;;;;;;;;0.00;0.00;;;;;;;;4751043;29;28339;-93
2022/10/25 02:57:58;;;;;;;;;0.00;0.00;;;;;;;;4744996;30;27853;-93
2022/10/25 03:00:23;;;;;;;;;0.00;0.00;;;;;;;;4733334;30;29882;-93
2022/10/25 03:02:48;;;;;;;;;0.00;0.00;;;;;;;;4734396;29;29803;-93
2022/10/25 03:05:14;;;;;;;;;0.00;0.00;;;;;;;;4733600;30;28540;-92
2022/10/25 03:07:39;;;;;;;;;0.00;0.00;;;;;;;;4733410;30;28423;-93
2022/10/25 03:10:04;;;;;;;;;0.00;0.00;;;;;;;;4733162;29;29786;-92
2022/10/25 03:12:30;;;;;;;;;0.00;0.00;;;;;;;;4751390;29;28701;-93
2022/10/25 03:14:55;;;;;;;;;0.00;0.00;;;;;;;;4747081;30;28710;-93
2022/10/25 03:17:20;;;;;;;;;0.00;0.00;;;;;;;;4749274;30;28709;-93
2022/10/25 03:19:45;;;;;;;;;0.00;0.00;;;;;;;;4733287;30;30081;-93
2022/10/25 03:22:11;;;;;;;;;0.00;0.00;;;;;;;;4732956;30;28572;-93
2022/10/25 03:24:36;;;;;;;;;0.00;0.00;;;;;;;;4733407;30;28016;-92
2022/10/25 03:27:01;;;;;;;;;0.00;0.00;;;;;;;;4733284;30;28025;-92
2022/10/25 03:29:27;;;;;;;;;0.00;0.00;;;;;;;;4732724;30;29825;-93
2022/10/25 03:31:52;;;;;;;;;0.00;0.00;;;;;;;;4747420;30;28562;-93
2022/10/25 03:34:17;;;;;;;;;0.00;0.00;;;;;;;;4747653;30;28409;-93
2022/10/25 03:36:42;;;;;;;;;0.00;0.00;;;;;;;;4747540;30;28422;-93
2022/10/25 03:39:08;;;;;;;;;0.00;0.00;;;;;;;;4748005;30;30046;-94
2022/10/25 03:41:34;;;;;;;;;0.00;0.00;;;;;;;;4747454;30;28510;-92
2022/10/25 03:43:59;;;;;;;;;0.00;0.00;;;;;;;;4748861;30;28473;-94
2022/10/25 03:46:24;;;;;;;;;0.00;0.00;;;;;;;;4733250;30;28550;-92
2022/10/25 03:48:49;;;;;;;;;0.00;0.00;;;;;;;;4742724;29;29869;-92
2022/10/25 03:51:14;;;;;;;;;0.00;0.00;;;;;;;;4749637;30;28760;-93
2022/10/25 03:53:40;;;;;;;;;0.00;0.00;;;;;;;;4736282;30;28360;-93
2022/10/25 03:56:05;;;;;;;;;0.00;0.00;;;;;;;;4735814;30;28562;-93
2022/10/25 03:58:30;;;;;;;;;0.00;0.00;;;;;;;;4736005;30;30067;-94
2022/10/25 04:00:56;;;;;;;;;0.00;0.00;;;;;;;;4735728;30;28430;-93
2022/10/25 04:03:21;;;;;;;;;0.00;0.00;;;;;;;;4736343;30;28640;-93
2022/10/25 04:05:46;;;;;;;;;0.00;0.00;;;;;;;;4735294;30;28446;-94
2022/10/25 04:08:12;;;;;;;;;0.00;0.00;;;;;;;;4735956;30;30216;-93
2022/10/25 04:10:37;;;;;;;;;0.00;0.00;;;;;;;;4735503;30;28931;-93
2022/10/25 04:13:02;;;;;;;;;0.00;0.00;;;;;;;;4736152;30;28486;-94
2022/10/25 04:15:27;;;;;;;;;0.00;0.00;;;;;;;;4736145;30;28290;-93
2022/10/25 04:17:53;;;;;;;;;0.00;0.00;;;;;;;;4735789;30;30093;-94
2022/10/25 04:20:18;;;;;;;;;0.00;0.00;;;;;;;;4735220;30;28659;-94
2022/10/25 04:22:43;;;;;;;;;0.00;0.00;;;;;;;;4735921;30;28409;-93
2022/10/25 04:25:09;;;;;;;;;0.00;0.00;;;;;;;;4735592;30;28564;-94
2022/10/25 04:27:34;;;;;;;;;0.00;0.00;;;;;;;;4735773;30;29909;-93
2022/10/25 04:29:59;;;;;;;;;0.00;0.00;;;;;;;;4735224;30;29062;-94
2022/10/25 04:32:24;;;;;;;;;0.00;0.00;;;;;;;;4735708;30;27834;-94
2022/10/25 04:34:50;;;;;;;;;0.00;0.00;;;;;;;;4752596;29;28692;-93
2022/10/25 04:37:15;;;;;;;;;0.00;0.00;;;;;;;;4753137;29;29782;-94
2022/10/25 04:39:40;;;;;;;;;0.00;0.00;;;;;;;;4753339;29;28713;-93
2022/10/25 04:42:05;;;;;;;;;0.00;0.00;;;;;;;;4753235;29;27948;-93
2022/10/25 04:44:31;;;;;;;;;0.00;0.00;;;;;;;;4753811;29;28658;-93
2022/10/25 04:46:56;;;;;;;;;0.00;0.00;;;;;;;;4749437;30;30134;-94
2022/10/25 04:49:21;;;;;;;;;0.00;0.00;;;;;;;;4735458;30;28600;-93
2022/10/25 04:51:46;;;;;;;;;0.00;0.00;;;;;;;;4737447;30;28580;-93
2022/10/25 04:54:12;;;;;;;;;0.00;0.00;;;;;;;;4754013;30;28588;-93
2022/10/25 04:56:37;;;;;;;;;0.00;0.00;;;;;;;;4750446;29;30483;-94
2022/10/25 04:59:02;;;;;;;;;0.00;0.00;;;;;;;;4755000;29;28993;-93
2022/10/25 05:01:28;;;;;;;;;0.00;0.00;;;;;;;;4752588;29;28473;-92
2022/10/25 05:03:53;;;;;;;;;0.00;0.00;;;;;;;;4754077;29;28375;-93
2022/10/25 05:06:19;;;;;;;;;0.00;0.00;;;;;;;;4742326;30;29963;-93
2022/10/25 05:08:49;;;;;;;;;0.00;0.00;;;;;;;;4735669;30;28896;-93
2022/10/25 05:11:15;;;;;;;;;0.00;0.00;;;;;;;;4736012;29;28475;-93
2022/10/25 05:13:40;;;;;;;;;0.00;0.00;;;;;;;;4739613;29;28769;-93
2022/10/25 05:16:06;;;;;;;;;0.00;0.00;;;;;;;;4743486;30;29965;-94
2022/10/25 05:18:32;;;;;;;;;0.00;0.00;;;;;;;;4734714;30;28780;-93
2022/10/25 05:20:58;;;;;;;;;0.00;0.00;;;;;;;;4733953;30;28407;-93
2022/10/25 05:23:23;;;;;;;;;0.00;0.00;;;;;;;;4734939;30;27906;-94
2022/10/25 05:25:58;;;;;;;;;0.00;0.00;;;;;;;;4734247;29;30354;-93
2022/10/25 05:28:24;;;;;;;;;0.00;0.00;;;;;;;;4744082;29;28557;-94
2022/10/25 05:30:49;;;;;;;;;0.00;0.00;;;;;;;;4742505;30;28534;-91
2022/10/25 05:33:14;;;;;;;;;0.00;0.00;;;;;;;;4734991;29;28490;-94
2022/10/25 05:35:39;;;;;;;;;0.00;0.00;;;;;;;;4741435;29;30568;-94
2022/10/25 05:38:04;;;;;;;;;0.00;0.00;;;;;;;;4745640;29;29861;-92
2022/10/25 05:40:36;;;;;;;;;0.00;0.00;;;;;;;;4764289;29;28582;-96
2022/10/25 05:43:39;;;;;;;;;1.00;1.00;;;;;;;;4749789;29;28688;-94
2022/10/25 05:46:09;;;;;;;;;0.00;0.00;;;;;;;;4756101;29;29847;-94
2022/10/25 05:48:35;;;;;;;;;0.00;0.00;;;;;;;;4735427;29;28611;-92
2022/10/25 05:51:13;;;;;;;;;0.00;0.00;;;;;;;;4767915;29;28551;-94
2022/10/25 05:53:44;;;;;;;;;0.00;0.00;;;;;;;;4752883;29;28389;-94
2022/10/25 05:56:09;;;;;;;;;0.00;0.00;;;;;;;;4752495;29;30152;-94
2022/10/25 05:58:34;;;;;;;;;0.00;0.00;;;;;;;;4752408;29;28588;-93
2022/10/25 06:01:00;;;;;;;;;0.00;0.00;;;;;;;;4751989;29;28446;-94
2022/10/25 06:03:25;;;;;;;;;0.00;0.00;;;;;;;;4752298;29;28812;-94
2022/10/25 06:05:50;;;;;;;;;0.00;0.00;;;;;;;;4767916;29;29773;-94
2022/10/25 06:08:16;;;;;;;;;0.00;0.00;;;;;;;;4738198;30;29112;-94
2022/10/25 06:10:41;;;;;;;;;0.00;0.00;;;;;;;;4734177;30;28487;-93
2022/10/25 06:13:06;;;;;;;;;0.00;0.00;;;;;;;;4735340;30;28508;-93
2022/10/25 06:15:31;;;;;;;;;0.00;0.00;;;;;;;;4734723;30;29798;-93
2022/10/25 06:17:56;;;;;;;;;0.00;0.00;;;;;;;;4738817;30;29409;-93
2022/10/25 06:20:22;;;;;;;;;0.00;0.00;;;;;;;;4738207;30;27701;-93
2022/10/25 06:22:47;;;;;;;;;0.00;0.00;;;;;;;;4754484;30;28249;-92
2022/10/25 06:25:12;;;;;;;;;0.00;0.00;;;;;;;;4734724;30;29971;-91
2022/10/25 06:27:37;;;;;;;;;0.00;0.00;;;;;;;;4748379;30;28548;-90
2022/10/25 06:30:03;;;;;;;;;0.00;0.00;;;;;;;;4747568;29;28383;-88
2022/10/25 06:32:28;;;;;;;;;0.00;0.00;;;;;;;;4748386;30;28505;-88
2022/10/25 06:34:53;;;;;;;;;0.00;0.00;;;;;;;;4747349;30;28548;-86
2022/10/25 06:37:18;;;;;;;;;0.00;0.00;;;;;;;;4733138;29;28505;-84
2022/10/25 06:39:44;;;;;;;;;0.00;0.00;;;;;;;;4762792;29;28407;-83
2022/10/25 06:42:09;;;;;;;;;0.00;0.00;;;;;;;;4749402;29;28418;-86
2022/10/25 06:44:34;;;;;;;;;0.00;0.00;;;;;;;;4765652;29;28449;-86
2022/10/25 06:46:59;;;;;;;;;0.00;0.00;;;;;;;;4763953;29;28418;-85
2022/10/25 06:49:25;;;;;;;;;0.00;0.00;;;;;;;;4728672;30;28375;-86
2022/10/25 06:51:50;;;;;;;;;0.00;0.00;;;;;;;;4731523;30;28451;-89
2022/10/25 06:54:15;;;;;;;;;0.00;0.00;;;;;;;;4731843;30;30002;-85
2022/10/25 06:56:40;;;;;;;;;0.00;0.00;;;;;;;;4730995;30;29337;-86
2022/10/25 06:59:06;;;;;;;;;0.00;0.00;;;;;;;;4747526;29;28492;-85
2022/10/25 07:01:31;;;;;;;;;0.00;0.00;;;;;;;;4749089;29;28476;-86
2022/10/25 07:03:57;;;;;;;;;0.00;0.00;;;;;;;;4754545;29;28434;-86
2022/10/25 07:06:26;;;;;;;;;0.00;0.00;;;;;;;;4746854;30;28795;-85
2022/10/25 07:08:57;;;;;;;;;0.00;0.00;;;;;;;;4737739;29;28865;-86
2022/10/25 07:11:23;;;;;;;;;0.00;0.00;;;;;;;;4759191;29;28462;-86
2022/10/25 07:13:49;;;;;;;;;0.00;0.00;;;;;;;;4750215;29;29650;-86
2022/10/25 07:16:15;;;;;;;;;0.00;0.00;;;;;;;;4733736;30;28856;-86
2022/10/25 07:18:40;;;;;;;;;0.00;0.00;;;;;;;;4745939;29;28554;-86
2022/10/25 07:21:07;;;;;;;;;0.00;0.00;;;;;;;;4745439;29;28553;-87
2022/10/25 07:23:33;;;;;;;;;0.00;0.00;;;;;;;;4748403;30;28853;-88
2022/10/25 07:25:58;;;;;;;;;0.00;0.00;;;;;;;;4749384;29;28568;-87
2022/10/25 07:28:23;;;;;;;;;0.00;0.00;;;;;;;;4734487;30;28503;-88
2022/10/25 07:30:49;;;;;;;;;0.00;0.00;;;;;;;;4757034;29;28372;-87
2022/10/25 07:33:16;;;;;;;;;0.00;0.00;;;;;;;;4748244;29;30091;-88
2022/10/25 07:35:48;;;;;;;;;0.00;0.00;;;;;;;;4736323;29;30089;-88
2022/10/25 07:38:13;;;;;;;;;0.00;0.00;;;;;;;;4742034;29;28404;-87
2022/10/25 07:40:39;;;;;;;;;0.00;0.00;;;;;;;;4754071;29;28386;-85
2022/10/25 07:43:05;;;;;;;;;0.00;0.00;;;;;;;;4756249;29;28563;-85
2022/10/25 07:45:30;;;;;;;;;0.00;0.00;;;;;;;;4754356;29;28414;-86
2022/10/25 07:47:55;;;;;;;;;0.00;0.00;;;;;;;;4733876;30;28615;-87
2022/10/25 07:50:20;;;;;;;;;0.00;0.00;;;;;;;;4744096;29;27844;-86
2022/10/25 07:52:45;;;;;;;;;0.00;0.00;;;;;;;;4733557;30;30432;-86
2022/10/25 07:55:11;;;;;;;;;0.00;0.00;;;;;;;;4753825;29;28884;-90
2022/10/25 07:57:36;;;;;;;;;0.00;0.00;;;;;;;;4756363;29;28697;-87
2022/10/25 08:00:02;;;;;;;;;0.00;0.00;;;;;;;;4758647;29;28599;-89
2022/10/25 08:02:27;;;;;;;;;0.00;0.00;;;;;;;;4745043;29;30245;-87
2022/10/25 08:04:53;;;;;;;;;0.00;0.00;;;;;;;;4746225;29;29023;-90
2022/10/25 08:07:18;;;;;;;;;0.00;0.00;;;;;;;;4743173;29;28511;-88
2022/10/25 08:09:43;;;;;;;;;0.00;0.00;;;;;;;;4754759;29;28461;-88
2022/10/25 08:12:08;;;;;;;;;0.00;0.00;;;;;;;;4750427;29;29297;-89
2022/10/25 08:14:33;;;;;;;;;0.00;0.00;;;;;;;;4736225;29;28963;-88
2022/10/25 08:16:58;;;;;;;;;0.00;0.00;;;;;;;;4757767;29;28571;-90
2022/10/25 08:19:24;;;;;;;;;0.00;0.00;;;;;;;;4737430;29;28435;-90
2022/10/25 08:21:49;;;;;;;;;0.00;0.00;;;;;;;;4749098;29;30991;-90
2022/10/25 08:24:14;;;;;;;;;0.00;0.00;;;;;;;;4735068;29;28547;-88
2022/10/25 08:26:39;;;;;;;;;0.00;0.00;;;;;;;;4745070;29;28516;-86
2022/10/25 08:29:04;;;;;;;;;0.00;0.00;;;;;;;;4760182;29;28550;-84
2022/10/25 08:31:29;;;;;;;;;0.00;0.00;;;;;;;;4755073;29;29206;-84
2022/10/25 08:33:55;;;;;;;;;0.00;0.00;;;;;;;;4744672;29;28588;-84
2022/10/25 08:36:20;;;;;;;;;0.00;0.00;;;;;;;;4751821;29;28730;-87
2022/10/25 08:38:45;;;;;;;;;0.00;0.00;;;;;;;;4738903;29;28604;-83
2022/10/25 08:41:22;;;;;;;;;0.00;0.00;;;;;;;;4752017;29;28447;-84
2022/10/25 08:44:03;;;;;;;;;0.00;0.00;;;;;;;;4749394;29;28410;-84
2022/10/25 08:46:33;;;;;;;;;0.00;0.00;;;;;;;;4743985;29;28912;-87
2022/10/25 08:49:18;;;;;;;;;0.00;0.00;;;;;;;;4735929;29;28495;-88
2022/10/25 08:51:46;;;;;;;;;0.00;0.00;;;;;;;;4735447;30;30346;-87
2022/10/25 08:54:23;;;;;;;;;0.00;0.00;;;;;;;;4755083;29;28759;-84
2022/10/25 08:56:50;;;;;;;;;0.00;0.00;;;;;;;;4753825;29;27860;-87
2022/10/25 08:59:19;;;;;;;;;0.00;0.00;;;;;;;;4735187;29;28455;-85
2022/10/25 09:01:50;;;;;;;;;0.00;0.00;;;;;;;;4747742;29;30348;-85
2022/10/25 09:04:15;;;;;;;;;0.00;0.00;;;;;;;;4733730;29;28682;-84
2022/10/25 09:06:59;;;;;;;;;0.00;0.00;;;;;;;;4740870;30;28678;-86
2022/10/25 09:09:32;;;;;;;;;0.00;0.00;;;;;;;;4741044;30;28661;-96
2022/10/25 09:12:11;;;;;;;;;0.00;0.00;;;;;;;;4746242;29;30322;-96
2022/10/25 09:15:00;;;;;;;;;0.00;0.00;;;;;;;;4743194;29;28467;-96
2022/10/25 09:17:33;;;;;;;;;0.00;0.00;;;;;;;;4740081;29;28463;-96
2022/10/25 09:20:32;;;;;;;;;0.00;0.00;;;;;;;;4749277;30;28686;-96
2022/10/25 09:23:02;;;;;;;;;0.00;0.00;;;;;;;;4677628;30;29837;-87
2022/10/25 09:25:30;;;;;;;;;0.00;0.00;;;;;;;;4673569;30;28469;-90
2022/10/25 09:27:58;;;;;;;;;0.00;0.00;;;;;;;;4662376;30;28493;-92
2022/10/25 09:30:24;;;;;;;;;0.00;0.00;;;;;;;;4661310;30;28678;-89
2022/10/25 09:32:53;;;;;;;;;0.00;0.00;;;;;;;;4676169;30;28780;-92
2022/10/25 09:35:27;;;;;;;;;0.00;0.00;;;;;;;;4681724;30;28576;-94
2022/10/25 09:37:58;;;;;;;;;0.00;0.00;;;;;;;;4663651;30;28686;-91
2022/10/25 09:40:24;;;;;;;;;0.00;0.00;;;;;;;;4675350;30;28473;-96
2022/10/25 09:42:53;;;;;;;;;0.00;0.00;;;;;;;;4681813;30;28642;-96
2022/10/25 09:45:18;;;;;;;;;0.00;0.00;;;;;;;;4680513;30;28464;-93
2022/10/25 09:47:56;;;;;;;;;0.00;0.00;;;;;;;;4664396;30;28664;-94
2022/10/25 09:50:26;;;;;;;;;0.00;0.00;;;;;;;;4661824;30;27931;-90
2022/10/25 09:53:08;;;;;;;;;0.00;0.00;;;;;;;;4663464;30;30501;-94
2022/10/25 09:55:40;;;;;;;;;0.00;0.00;;;;;;;;4672096;30;28566;-96
2022/10/25 09:58:08;;;;;;;;;0.00;0.00;;;;;;;;4702146;29;28566;-92
2022/10/25 10:00:36;;;;;;;;;0.00;0.00;;;;;;;;4750459;29;27853;-96
2022/10/25 10:03:01;;;;;;;;;0.00;0.00;;;;;;;;4751870;29;30169;-92
2022/10/25 10:05:29;;;;;;;;;0.00;0.00;;;;;;;;4746592;29;28679;-96
2022/10/25 10:07:54;;;;;;;;;0.00;0.00;;;;;;;;4750909;29;27835;-96
2022/10/25 10:10:23;;;;;;;;;0.00;0.00;;;;;;;;4740904;29;28451;-93
2022/10/25 10:13:01;;;;;;;;;0.00;0.00;;;;;;;;4747407;29;29853;-95
2022/10/25 10:15:37;;;;;;;;;0.00;0.00;;;;;;;;4750588;29;28536;-94
2022/10/25 10:18:21;;;;;;;;;0.00;0.00;;;;;;;;4740255;30;27889;-89
2022/10/25 10:21:10;;;;;;;;;0.00;0.00;;;;;;;;4742927;29;28519;-88
2022/10/25 10:23:35;;;;;;;;;0.00;0.00;;;;;;;;4742403;30;31196;-87
2022/10/25 10:26:09;;;;;;;;;0.00;0.00;;;;;;;;4738427;29;29116;-90
2022/10/25 10:28:34;;;;;;;;;0.00;0.00;;;;;;;;4735991;29;28715;-89
2022/10/25 10:31:03;;;;;;;;;0.00;0.00;;;;;;;;4752086;29;28541;-92
2022/10/25 10:33:30;;;;;;;;;0.00;0.00;;;;;;;;4749298;29;28545;-88
2022/10/25 10:36:16;;;;;;;;;0.00;0.00;;;;;;;;4728602;29;28756;-87
2022/10/25 10:38:42;;;;;;;;;0.00;0.00;;;;;;;;4753856;29;28555;-90
2022/10/25 10:41:15;;;;;;;;;0.00;0.00;;;;;;;;4760500;29;28481;-94
2022/10/25 10:43:40;;;;;;;;;0.00;0.00;;;;;;;;4742950;29;31093;-91
2022/10/25 10:46:12;;;;;;;;;0.00;0.00;;;;;;;;4744191;29;28649;-90
2022/10/25 10:48:40;;;;;;;;;0.00;0.00;;;;;;;;4737899;29;28475;-88
2022/10/25 10:51:05;;;;;;;;;0.00;0.00;;;;;;;;4756058;29;28485;-91
2022/10/25 10:53:31;;;;;;;;;0.00;0.00;;;;;;;;4753602;29;28538;-89
2022/10/25 10:56:06;;;;;;;;;0.00;0.00;;;;;;;;4738060;30;29143;-89
2022/10/25 10:58:33;;;;;;;;;0.00;0.00;;;;;;;;4753262;29;28709;-91
2022/10/25 11:00:59;;;;;;;;;0.00;0.00;;;;;;;;4749365;29;28459;-90
2022/10/25 11:03:45;;;;;;;;;0.00;0.00;;;;;;;;4750239;29;28525;-88
2022/10/25 11:06:25;;;;;;;;;0.00;0.00;;;;;;;;4757443;29;28573;-90
2022/10/25 11:09:07;;;;;;;;;0.00;0.00;;;;;;;;4754685;29;28534;-88
2022/10/25 11:11:32;;;;;;;;;0.00;0.00;;;;;;;;4749721;29;28782;-89
2022/10/25 11:13:59;;;;;;;;;0.00;0.00;;;;;;;;4752223;29;28723;-90
2022/10/25 11:16:31;;;;;;;;;0.00;0.00;;;;;;;;4740063;29;29806;-90
2022/10/25 11:19:03;;;;;;;;;0.00;0.00;;;;;;;;4740885;29;28596;-90
2022/10/25 11:21:48;;;;;;;;;0.00;0.00;;;;;;;;4749366;29;28454;-92
2022/10/25 11:24:21;;;;;;;;;0.00;0.00;;;;;;;;4746842;29;29341;-92
2022/10/25 11:26:49;;;;;;;;;0.00;0.00;;;;;;;;4753268;29;28546;-90
2022/10/25 11:29:33;;;;;;;;;0.00;0.00;;;;;;;;4734719;29;28665;-89
2022/10/25 11:32:08;;;;;;;;;0.00;0.00;;;;;;;;4753279;29;28659;-90
2022/10/25 11:34:51;;;;;;;;;0.00;0.00;;;;;;;;4732819;29;29938;-90
2022/10/25 11:37:32;;;;;;;;;0.00;0.00;;;;;;;;4738827;29;29647;-90
2022/10/25 11:40:12;;;;;;;;;0.00;0.00;;;;;;;;4754733;29;28622;-89
2022/10/25 11:42:50;;;;;;;;;0.00;0.00;;;;;;;;4758079;29;28579;-90
2022/10/25 11:45:22;;;;;;;;;0.00;0.00;;;;;;;;4733337;29;30324;-90
2022/10/25 11:47:53;;;;;;;;;0.00;0.00;;;;;;;;4752825;29;28406;-89
2022/10/25 11:50:21;;;;;;;;;0.00;0.00;;;;;;;;4751033;29;28598;-91
2022/10/25 11:52:52;;;;;;;;;0.00;0.00;;;;;;;;4747128;29;28566;-90
2022/10/25 11:55:36;;;;;;;;;0.00;0.00;;;;;;;;4750401;29;28801;-89
2022/10/25 11:58:20;;;;;;;;;0.00;0.00;;;;;;;;4746685;29;28652;-90
2022/10/25 12:00:57;;;;;;;;;0.00;0.00;;;;;;;;4731300;29;28598;-92
2022/10/25 12:03:33;;;;;;;;;0.00;0.00;;;;;;;;4749525;29;28627;-95
2022/10/25 12:06:20;;;;;;;;;0.00;0.00;;;;;;;;4735251;30;30227;-95
2022/10/25 12:09:01;;;;;;;;;0.00;0.00;;;;;;;;4734747;30;28564;-96
2022/10/25 12:11:31;;;;;;;;;0.00;0.00;;;;;;;;4740155;29;28233;-92
2022/10/25 12:14:03;;;;;;;;;0.00;0.00;;;;;;;;4736170;29;28525;-92
2022/10/25 12:16:29;;;;;;;;;0.00;0.00;;;;;;;;4758726;29;28539;-91
2022/10/25 12:19:03;;;;;;;;;0.00;0.00;;;;;;;;4754204;29;28815;-89
2022/10/25 12:21:31;;;;;;;;;0.00;0.00;;;;;;;;4745856;29;27984;-92
2022/10/25 12:23:57;;;;;;;;;0.00;0.00;;;;;;;;4743687;29;28783;-96
2022/10/25 12:26:33;;;;;;;;;0.00;0.00;;;;;;;;4758640;29;28387;-93
2022/10/25 12:29:01;;;;;;;;;0.00;0.00;;;;;;;;4736316;29;28865;-93
2022/10/25 12:31:32;;;;;;;;;0.00;0.00;;;;;;;;4757781;29;28497;-91
2022/10/25 12:34:04;;;;;;;;;0.00;0.00;;;;;;;;4750265;29;28416;-90
2022/10/25 12:36:33;;;;;;;;;0.00;0.00;;;;;;;;4744069;29;30143;-91
2022/10/25 12:39:01;;;;;;;;;0.00;0.00;;;;;;;;4754097;29;28529;-93
2022/10/25 12:41:33;;;;;;;;;0.00;0.00;;;;;;;;4735287;29;29529;-93
2022/10/25 12:43:58;;;;;;;;;0.00;0.00;;;;;;;;4760882;29;28447;-91
2022/10/25 12:46:23;;;;;;;;;0.00;0.00;;;;;;;;4747339;29;30292;-95
2022/10/25 12:48:51;;;;;;;;;0.00;0.00;;;;;;;;4741863;29;28777;-94
2022/10/25 12:51:17;;;;;;;;;0.00;0.00;;;;;;;;4757709;29;28506;-92
2022/10/25 12:53:51;;;;;;;;;0.00;0.00;;;;;;;;4745309;29;28411;-91
2022/10/25 12:56:22;;;;;;;;;0.00;0.00;;;;;;;;4753124;29;28459;-91
2022/10/25 12:58:53;;;;;;;;;0.00;0.00;;;;;;;;4755108;29;28343;-90
2022/10/25 13:01:24;;;;;;;;;0.00;0.00;;;;;;;;4758537;29;28490;-90
2022/10/25 13:03:49;;;;;;;;;0.00;0.00;;;;;;;;4740344;29;28567;-92
2022/10/25 13:06:20;;;;;;;;;0.00;0.00;;;;;;;;4745359;29;30979;-92
2022/10/25 13:08:46;;;;;;;;;0.00;0.00;;;;;;;;4749444;29;28747;-91
2022/10/25 13:11:12;;;;;;;;;0.00;0.00;;;;;;;;4761509;29;28498;-90
2022/10/25 13:13:48;;;;;;;;;0.00;0.00;;;;;;;;4748346;29;27874;-91
2022/10/25 13:16:22;;;;;;;;;0.00;0.00;;;;;;;;4753757;29;29291;-91
2022/10/25 13:18:47;;;;;;;;;0.00;0.00;;;;;;;;4739030;29;28535;-92
2022/10/25 13:21:32;;;;;;;;;0.00;0.00;;;;;;;;4755085;29;27863;-94
2022/10/25 13:23:58;;;;;;;;;0.00;0.00;;;;;;;;4757674;29;27790;-94
2022/10/25 13:26:24;;;;;;;;;0.00;0.00;;;;;;;;4763232;29;29201;-94
2022/10/25 13:28:51;;;;;;;;;0.00;0.00;;;;;;;;4736199;29;28711;-95
2022/10/25 13:31:35;;;;;;;;;0.00;0.00;;;;;;;;4742746;29;28572;-95
2022/10/25 13:34:12;;;;;;;;;0.00;0.00;;;;;;;;4739605;29;28635;-94
2022/10/25 13:36:51;;;;;;;;;0.00;0.00;;;;;;;;4739743;29;30111;-94
2022/10/25 13:39:37;;;;;;;;;0.00;0.00;;;;;;;;4738085;29;29089;-89
2022/10/25 13:42:22;;;;;;;;;0.00;0.00;;;;;;;;4740322;29;28610;-93
2022/10/25 13:44:52;;;;;;;;;0.00;0.00;;;;;;;;4739175;29;28535;-89
2022/10/25 13:47:36;;;;;;;;;0.00;0.00;;;;;;;;4733985;29;30165;-90
2022/10/25 13:50:21;;;;;;;;;0.00;0.00;;;;;;;;4738822;29;29546;-92
2022/10/25 13:53:03;;;;;;;;;0.00;0.00;;;;;;;;4731641;29;28921;-89
2022/10/25 13:55:33;;;;;;;;;0.00;0.00;;;;;;;;4742697;29;28612;-91
2022/10/25 13:58:00;;;;;;;;;0.00;0.00;;;;;;;;4753313;29;28501;-91
2022/10/25 14:00:33;;;;;;;;;0.00;0.00;;;;;;;;4739224;29;28590;-92
2022/10/25 14:03:20;;;;;;;;;0.00;0.00;;;;;;;;4756502;29;28506;-95
2022/10/25 14:05:54;;;;;;;;;0.00;0.00;;;;;;;;4766544;29;27845;-95
2022/10/25 14:08:21;;;;;;;;;0.00;0.00;;;;;;;;4760114;30;8867;-96
2022/10/25 14:10:48;;;;;;;;;0.00;0.00;;;;;;;;4780846;29;11668;-96
2022/10/25 14:13:17;;;;;;;;;0.00;0.00;;;;;;;;4769874;29;11729;-94
2022/10/25 14:15:45;;;;;;;;;0.00;0.00;;;;;;;;4756421;29;11643;-94
2022/10/25 14:18:14;;;;;;;;;0.00;0.00;;;;;;;;4776507;29;11776;-95
2022/10/25 14:20:43;;;;;;;;;0.00;0.00;;;;;;;;4757407;29;11715;-95
2022/10/25 14:23:13;;;;;;;;;0.00;0.00;;;;;;;;4779077;29;11769;-96
2022/10/25 14:25:40;;;;;;;;;0.00;0.00;;;;;;;;4780495;29;11674;-96
2022/10/25 14:28:11;;;;;;;;;0.00;0.00;;;;;;;;4761172;29;11706;-89
2022/10/25 14:30:57;;;;;;;;;0.00;0.00;;;;;;;;4766061;29;11858;-96
2022/10/25 14:33:24;;;;;;;;;1.00;1.00;;;;;;;;4762490;29;11723;-86
2022/10/25 14:35:51;;;;;;;;;0.00;0.00;;;;;;;;4774408;29;11712;-94
2022/10/25 14:38:17;;;;;;;;;0.00;0.00;;;;;;;;4762413;29;11688;-94
2022/10/25 14:40:49;;;;;;;;;0.00;0.00;;;;;;;;4772352;29;11742;-96
2022/10/25 14:43:22;;;;;;;;;0.00;0.00;;;;;;;;4764505;30;11730;-96
2022/10/25 14:45:59;;;;;;;;;0.00;0.00;;;;;;;;4759327;29;13182;-96
2022/10/25 14:48:26;;;;;;;;;0.00;0.00;;;;;;;;4779633;29;28449;-96
2022/10/25 14:50:52;;;;;;;;;72.33;62.33;;;;;;;;4767119;29;16090;-96
2022/10/25 14:53:17;;;;;;;;;22.00;22.00;;;;;;;;4753733;29;28462;-96
2022/10/25 14:55:51;;;;;;;;;1.00;1.00;;;;;;;;4770132;29;28461;-96
2022/10/25 14:58:16;;;;;;;;;1.00;1.00;;;;;;;;4759815;29;28538;-96